Historyczne dane pomiarowe

Dodano dane terminowe – wersja testowa.

Dane z okresu 1951-2019

Wersja bazy: 1.34 [2019-03-16, lista zmian], aktualizacja planowana na 2019-04-15

Dane meteo z obszaru Polski uzyskane na podstawie danych udostępnionych przez Instytut Meteorologii i Gospodarki Wodnej – Państwowy Instytut Badawczy.

 

Wybierz Datę:    

       

TemperaturaWilgotnośćWiatrCiśnienieOpadyŚniegCzas trwania zjawisk
 Stacja t tx tn tng RH VA  wxwx mslp ppp RRR   cm mm wxwxwxwxwxwxwx
2019-06-13 22.5 31.6 12.4--- 1.3 0.7---- 0.0------------
2019-06-12 21.3 29.8 9.8--- 0.7 1.0---- 0.0------------
2019-06-11 20.8 29.9 9.1--- 0.7 1.0---- 0.0------------
2019-06-10 20.3 29.8 11.7--- 3.7 0.3---- 0.0------------
2019-06-09 18.3 24.2 11.7--- 2.3 1.7---- 0.0------------
2019-06-08 17.2 26.3 9.7--- 4.3 0.3---- 0.0------------
2019-06-07 17.9 25.8 8.8--- 5.3 1.0---- 0.3------------
2019-06-06 15.9 23.8 7.8--- 3.3 0.7---- 3.5------------
2019-06-05 17.5 28.8 7.7--- 3.3 0.7---- 0.0------------
2019-06-04 16.8 25.4 6.9--- 3.0 1.0---- 0.0------------
2019-06-03 16.1 24.7 5.8--- 1.3 1.0---- 0.0------------
2019-06-02 15.7 23.3 8.6--- 4.0 1.3---- 0.0------------
2019-06-01 13.2 21.3 4.0--- 4.3 1.0---- 2.0------------
2019-05-31 11.9 17.8 6.5--- 4.7 0.7---- 0.0------------
2019-05-30 7.6 8.7 6.4--- 8.0 1.3---- 8.5------------
2019-05-29 10.7 14.4 8.2--- 8.0 2.0---- 2.6------------
2019-05-28 14.4 19.2 9.6--- 7.0 1.0---- 3.9------------
2019-05-27 14.4 22.3 4.9--- 5.7 1.0---- 0.0------------
2019-05-26 14.5 22.3 5.3--- 4.3 0.7---- 0.0------------
2019-05-25 12.4 20.0 6.3--- 5.7 1.0---- 0.0------------
2019-05-24 10.0 11.6 8.1--- 8.0 0.3---- 1.7------------
2019-05-23 9.4 11.0 8.2--- 8.0 0.7---- 16.4------------
2019-05-22 12.3 16.8 10.3--- 7.7 1.3---- 16.1------------
2019-05-21 10.5 15.8 4.5--- 7.3 1.3---- 20.5------------
2019-05-20 14.8 19.0 10.3--- 6.3 1.0---- 0.0------------
2019-05-19 12.4 21.9 3.0--- 5.7 0.3---- 2.7------------
2019-05-18 11.9 20.8 3.9--- 3.0 1.0---- 0.0------------
2019-05-17 12.4 18.0 6.8--- 5.0 0.7---- 0.3------------
2019-05-16 10.9 16.8 6.3--- 5.7 1.0---- 0.0------------
2019-05-15 5.4 7.5 2.4--- 8.0 1.0---- 6.0------------
2019-05-14 2.4 5.0 0.1--- 8.0 1.0---- 6.6-- 3---------
2019-05-13 5.8 8.2 4.8--- 7.0 2.7---- 8.4------------
2019-05-12 10.6 16.8 5.9--- 7.7 1.3---- 4.4------------
2019-05-11 11.0 17.2 4.4--- 5.0 1.0---- 0.0------------
2019-05-10 8.9 16.2 1.9--- 5.0 1.3---- 0.6------------
2019-05-09 6.0 9.9 1.4--- 8.0 3.0---- 5.5------------
2019-05-08 5.0 13.2 -2.9--- 5.3 0.7---- 0.3------------
2019-05-07 5.1 8.9 1.4--- 7.7 1.3---- 0.0------------
2019-05-06 3.1 5.9 0.2--- 8.0 2.0---- 0.5------------
2019-05-05 3.5 9.6 1.0--- 8.0 1.7---- 8.6------------
2019-05-04 7.3 13.3 2.4--- 6.0 1.0---- 2.0------------
2019-05-03 6.5 11.6 1.9--- 7.7 0.7---- 10.1------------
2019-05-02 11.5 17.2 6.2--- 5.3 2.7---- 0.0------------
2019-05-01 8.3 14.1 2.4--- 5.0 1.7---- 3.0------------
2019-04-30 8.8 10.4 7.4--- 8.0 2.0---- 5.5------------
2019-04-29 8.6 12.2 5.4--- 8.0 0.7---- 2.4------------
2019-04-28 7.3 9.1 6.0--- 8.0 1.0---- 20.0------------
2019-04-27 11.6 19.2 6.8--- 8.0 1.0---- 17.4------------
2019-04-26 14.7 24.3 2.3--- 4.3 2.0---- 0.7------------
2019-04-25 13.8 21.7 5.2--- 1.7 1.7---- 0.0------------
2019-04-24 11.1 17.6 4.7--- 5.0 0.7---- 0.0------------
2019-04-23 7.1 15.5 -1.1--- 7.3 1.7---- 0.0------------
2019-04-22 5.1 13.0 -2.9--- 3.7 1.7---- 2.6------------
2019-04-21 5.2 15.4 -4.6--- 2.0 1.0---- 0.0------------
2019-04-20 6.1 17.2 -5.6--- 2.3 1.0---- 0.0------------
2019-04-19 5.5 16.2 -4.6--- 0.7 1.7---- 0.0------------
2019-04-18 5.0 15.0 -3.0--- 4.3 1.3---- 0.0------------
2019-04-17 4.7 8.8 2.0--- 6.0 1.3---- 0.5------------
2019-04-16 1.5 11.9 -8.5--- 2.3 1.3---- 0.1------------
2019-04-15 2.5 9.3 -4.1--- 1.3 2.0---- 0.0------------
207.5 ms

 

Źródłem pochodzenia danych jest Instytut Meteorologii i Gospodarki Wodnej – Państwowy Instytut Badawczy. Dane Instytutu Meteorologii i Gospodarki Wodnej – Państwowego Instytutu Badawczego zostały przetworzone.

Dane źródłowe można odnaleźć na stronie https://dane.imgw.pl